Time;durP1;ratioP1;P1;durP2;ratioP2;P2;SDS_P1;SDS_P2;PMS_P1;PMS_P2;Temp;Humidity;BMP_temperature;BMP_pressure;BME280_temperature;BME280_humidity;BME280_pressure;Samples;Min_cycle;Max_cycle;Signal;HPM_P1;HPM_P2
2022/01/15 00:02:57;;;;;;;19.75;11.43;;;;;;;;;;6243633;28;20049;-69
2022/01/15 00:06:01;;;;;;;21.10;11.75;;;;;;;;;;6243729;28;20049;-69
2022/01/15 00:09:04;;;;;;;20.42;11.50;;;;;;;;;;6243265;28;20184;-69
2022/01/15 00:12:08;;;;;;;19.27;10.85;;;;;;;;;;6242085;28;20056;-69
2022/01/15 00:15:16;;;;;;;23.42;12.02;;;;;;;;;;6242501;28;20409;-69
2022/01/15 00:18:39;;;;;;;19.38;10.90;;;;;;;;;;6241635;28;20042;-69
2022/01/15 00:21:43;;;;;;;19.15;11.00;;;;;;;;;;6242062;28;20037;-69
2022/01/15 00:24:47;;;;;;;20.30;11.40;;;;;;;;;;6243388;28;20049;-70
2022/01/15 00:27:50;;;;;;;19.77;11.00;;;;;;;;;;6243462;28;20500;-70
2022/01/15 00:30:53;;;;;;;17.73;10.20;;;;;;;;;;6241343;28;20050;-70
2022/01/15 00:33:56;;;;;;;17.75;10.05;;;;;;;;;;6242806;28;20049;-70
2022/01/15 00:37:01;;;;;;;18.13;11.25;;;;;;;;;;6240817;28;20547;-69
2022/01/15 00:40:07;;;;;;;19.88;10.98;;;;;;;;;;6242636;28;20045;-70
2022/01/15 00:43:10;;;;;;;17.80;10.80;;;;;;;;;;6242752;28;20061;-70
2022/01/15 00:46:12;;;;;;;21.50;11.70;;;;;;;;;;6241575;28;20500;-69
2022/01/15 00:49:16;;;;;;;18.38;9.63;;;;;;;;;;6243007;28;20045;-70
2022/01/15 00:52:20;;;;;;;21.98;10.82;;;;;;;;;;6241314;28;20053;-70
2022/01/15 00:55:23;;;;;;;26.33;15.68;;;;;;;;;;6238402;28;20135;-70
2022/01/15 00:58:26;;;;;;;20.08;11.63;;;;;;;;;;6242878;28;20049;-70
2022/01/15 01:01:31;;;;;;;19.55;10.90;;;;;;;;;;6240852;28;20068;-70
2022/01/15 01:04:34;;;;;;;19.98;10.48;;;;;;;;;;6241196;28;20175;-70
2022/01/15 01:07:39;;;;;;;19.25;11.00;;;;;;;;;;6224978;28;20049;-70
2022/01/15 01:10:50;;;;;;;16.83;9.88;;;;;;;;;;6240978;28;20507;-70
2022/01/15 01:20:50;;;;;;;18.75;10.55;;;;;;;;;;6242278;28;20056;-70
2022/01/15 01:23:53;;;;;;;18.48;10.82;;;;;;;;;;6242389;28;20381;-70
2022/01/15 01:27:00;;;;;;;18.27;10.48;;;;;;;;;;6241902;28;20053;-70
2022/01/15 01:30:12;;;;;;;18.58;10.40;;;;;;;;;;6242044;28;20042;-71
2022/01/15 01:33:31;;;;;;;18.50;9.90;;;;;;;;;;6224746;28;20052;-69
2022/01/15 01:36:42;;;;;;;18.40;9.77;;;;;;;;;;6240733;28;20079;-69
2022/01/15 01:39:52;;;;;;;18.27;10.05;;;;;;;;;;6241294;28;20049;-70
2022/01/15 01:43:02;;;;;;;16.98;9.70;;;;;;;;;;6241992;28;20066;-69
2022/01/15 01:46:18;;;;;;;18.52;10.38;;;;;;;;;;6242601;28;20492;-69
2022/01/15 01:49:25;;;;;;;20.05;10.45;;;;;;;;;;6224114;28;20099;-69
2022/01/15 01:52:28;;;;;;;17.83;10.45;;;;;;;;;;6224525;28;20391;-69
2022/01/15 01:55:32;;;;;;;18.98;10.05;;;;;;;;;;6240555;28;20051;-69
2022/01/15 01:58:35;;;;;;;18.67;10.77;;;;;;;;;;6242530;28;20045;-69
2022/01/15 02:01:38;;;;;;;18.05;10.27;;;;;;;;;;6240284;28;20128;-69
2022/01/15 02:04:41;;;;;;;17.85;10.68;;;;;;;;;;6241783;28;20115;-70
2022/01/15 02:07:47;;;;;;;18.87;10.57;;;;;;;;;;6242274;28;20064;-69
2022/01/15 02:10:51;;;;;;;19.55;11.18;;;;;;;;;;6241257;28;20049;-69
2022/01/15 02:13:54;;;;;;;19.83;11.20;;;;;;;;;;6240587;28;20484;-70
2022/01/15 02:16:58;;;;;;;18.73;11.00;;;;;;;;;;6242533;28;20091;-69
2022/01/15 02:20:24;;;;;;;18.25;10.63;;;;;;;;;;6245355;28;20041;-69
2022/01/15 02:23:33;;;;;;;16.42;10.30;;;;;;;;;;6245648;28;20072;-69
2022/01/15 02:26:39;;;;;;;18.52;10.30;;;;;;;;;;6228547;28;20132;-69
2022/01/15 02:29:42;;;;;;;19.42;10.45;;;;;;;;;;6246301;28;20049;-69
2022/01/15 02:32:45;;;;;;;19.80;11.07;;;;;;;;;;6245513;28;20061;-69
2022/01/15 02:35:49;;;;;;;19.42;11.00;;;;;;;;;;6244843;28;20049;-68
2022/01/15 02:38:53;;;;;;;19.38;11.02;;;;;;;;;;6244517;28;20150;-69
2022/01/15 02:41:59;;;;;;;19.20;11.00;;;;;;;;;;6246042;28;20407;-68
2022/01/15 02:45:04;;;;;;;18.40;10.90;;;;;;;;;;6243845;28;20068;-69
2022/01/15 02:48:11;;;;;;;18.58;10.93;;;;;;;;;;6244369;28;20103;-68
2022/01/15 02:51:18;;;;;;;20.98;11.20;;;;;;;;;;6244564;28;20056;-69
2022/01/15 02:54:21;;;;;;;17.52;10.20;;;;;;;;;;6244122;28;20041;-70
2022/01/15 02:57:24;;;;;;;20.10;10.63;;;;;;;;;;6245657;28;20170;-69
2022/01/15 03:00:27;;;;;;;18.02;9.90;;;;;;;;;;6245415;28;20045;-69
2022/01/15 03:03:30;;;;;;;18.83;10.73;;;;;;;;;;6227617;28;20049;-69
2022/01/15 03:06:34;;;;;;;18.25;10.10;;;;;;;;;;6244815;28;20492;-69
2022/01/15 03:09:41;;;;;;;17.25;9.60;;;;;;;;;;6243785;28;20389;-69
2022/01/15 03:12:44;;;;;;;16.92;10.18;;;;;;;;;;6245687;28;20053;-69
2022/01/15 03:15:47;;;;;;;17.10;9.88;;;;;;;;;;6243099;28;20072;-69
2022/01/15 03:18:50;;;;;;;17.27;9.98;;;;;;;;;;6245129;28;20056;-69
2022/01/15 03:21:55;;;;;;;17.23;9.43;;;;;;;;;;6243800;28;20091;-69
2022/01/15 03:24:58;;;;;;;18.35;10.00;;;;;;;;;;6244801;28;20056;-69
2022/01/15 03:28:01;;;;;;;17.83;9.77;;;;;;;;;;6242742;28;20064;-69
2022/01/15 03:31:04;;;;;;;18.38;9.15;;;;;;;;;;6242641;28;20053;-70
2022/01/15 03:34:07;;;;;;;17.27;9.63;;;;;;;;;;6244913;28;20046;-68
2022/01/15 03:37:11;;;;;;;19.30;9.68;;;;;;;;;;6243896;28;20459;-70
2022/01/15 03:40:16;;;;;;;18.15;9.85;;;;;;;;;;6243271;28;20084;-69
2022/01/15 03:43:19;;;;;;;18.27;9.35;;;;;;;;;;6243043;28;20053;-70
2022/01/15 03:46:24;;;;;;;17.23;9.60;;;;;;;;;;6242694;28;20411;-70
2022/01/15 03:49:29;;;;;;;17.15;9.55;;;;;;;;;;6243034;28;20037;-69
2022/01/15 03:52:34;;;;;;;16.63;9.60;;;;;;;;;;6242593;28;20050;-70
2022/01/15 03:55:37;;;;;;;18.50;9.90;;;;;;;;;;6243227;28;20049;-69
2022/01/15 03:58:40;;;;;;;17.70;9.77;;;;;;;;;;6242030;28;20163;-70
2022/01/15 04:01:43;;;;;;;17.42;9.15;;;;;;;;;;6243887;28;20056;-69
2022/01/15 04:04:48;;;;;;;18.38;9.82;;;;;;;;;;6244059;28;20045;-71
2022/01/15 04:07:52;;;;;;;19.35;9.30;;;;;;;;;;6243231;28;20046;-69
2022/01/15 04:10:55;;;;;;;16.25;9.50;;;;;;;;;;6243852;28;20399;-70
2022/01/15 04:13:58;;;;;;;19.38;9.23;;;;;;;;;;6243501;28;20046;-70
2022/01/15 04:17:01;;;;;;;17.33;9.75;;;;;;;;;;6243471;28;20073;-69
2022/01/15 04:20:05;;;;;;;15.18;9.43;;;;;;;;;;6243220;28;20053;-70
2022/01/15 04:23:09;;;;;;;17.00;9.57;;;;;;;;;;6241882;28;20132;-70
2022/01/15 04:26:12;;;;;;;16.30;9.10;;;;;;;;;;6243781;28;20049;-69
2022/01/15 04:29:15;;;;;;;17.30;9.48;;;;;;;;;;6242582;28;20041;-70
2022/01/15 04:32:18;;;;;;;15.45;8.82;;;;;;;;;;6243575;28;20060;-70
2022/01/15 04:35:23;;;;;;;14.37;8.40;;;;;;;;;;6243343;28;20041;-69
2022/01/15 04:38:29;;;;;;;18.00;9.18;;;;;;;;;;6242747;28;20286;-69
2022/01/15 04:41:32;;;;;;;15.52;9.15;;;;;;;;;;6243059;28;20046;-68
2022/01/15 04:44:35;;;;;;;14.63;8.40;;;;;;;;;;6233205;28;20471;-68
2022/01/15 04:47:39;;;;;;;19.92;9.63;;;;;;;;;;6218732;28;20042;-70
2022/01/15 04:50:43;;;;;;;17.10;9.15;;;;;;;;;;6218181;28;20060;-69
2022/01/15 04:53:47;;;;;;;16.08;8.70;;;;;;;;;;6218291;28;20048;-69
2022/01/15 04:56:50;;;;;;;15.60;8.48;;;;;;;;;;6233636;28;20053;-69
2022/01/15 04:59:55;;;;;;;16.30;8.83;;;;;;;;;;6217977;28;20046;-69
2022/01/15 05:02:58;;;;;;;18.63;9.15;;;;;;;;;;6218179;28;20071;-69
2022/01/15 05:06:03;;;;;;;16.75;8.13;;;;;;;;;;6216783;28;20396;-70
2022/01/15 05:09:07;;;;;;;17.55;8.63;;;;;;;;;;6218174;28;20046;-70
2022/01/15 05:12:22;;;;;;;16.27;9.20;;;;;;;;;;6216332;28;20048;-70
2022/01/15 05:15:25;;;;;;;12.88;8.27;;;;;;;;;;6218084;28;20515;-70
2022/01/15 05:18:28;;;;;;;15.57;8.15;;;;;;;;;;6218145;28;20085;-70
2022/01/15 05:21:34;;;;;;;13.65;7.78;;;;;;;;;;6217510;28;20041;-70
2022/01/15 05:24:38;;;;;;;15.68;7.90;;;;;;;;;;6217920;28;20061;-70
2022/01/15 05:27:42;;;;;;;14.70;7.43;;;;;;;;;;6217778;28;20046;-70
2022/01/15 05:30:44;;;;;;;13.73;7.57;;;;;;;;;;6216727;28;20049;-69
2022/01/15 05:33:48;;;;;;;13.55;7.80;;;;;;;;;;6215811;28;20042;-70
2022/01/15 05:36:50;;;;;;;16.95;7.35;;;;;;;;;;6217530;28;20049;-70
2022/01/15 05:39:57;;;;;;;13.18;6.85;;;;;;;;;;6216687;28;20049;-69
2022/01/15 05:43:00;;;;;;;12.93;6.85;;;;;;;;;;6221896;28;20200;-70
2022/01/15 05:46:03;;;;;;;17.23;7.80;;;;;;;;;;6240849;28;20045;-70
2022/01/15 05:49:06;;;;;;;15.20;7.15;;;;;;;;;;6241902;28;20056;-70
2022/01/15 05:52:12;;;;;;;;;;;;;;;;;;6242447;28;20458;-70
2022/01/15 05:55:16;;;;;;;12.95;6.18;;;;;;;;;;6246665;28;19955;-70
2022/01/15 05:58:19;;;;;;;14.82;7.07;;;;;;;;;;6245436;28;20451;-68
2022/01/15 06:01:22;;;;;;;14.13;6.38;;;;;;;;;;6247538;28;20053;-69
2022/01/15 06:04:25;;;;;;;15.38;6.90;;;;;;;;;;6244628;28;20057;-69
2022/01/15 06:07:28;;;;;;;14.23;7.10;;;;;;;;;;6246579;28;20047;-69
2022/01/15 06:10:33;;;;;;;16.05;7.00;;;;;;;;;;6246746;28;20056;-69
2022/01/15 06:13:36;;;;;;;13.13;7.10;;;;;;;;;;6246186;28;20077;-69
2022/01/15 06:16:39;;;;;;;17.55;6.75;;;;;;;;;;6246783;28;20637;-69
2022/01/15 06:19:44;;;;;;;11.23;6.37;;;;;;;;;;6244963;28;20045;-69
2022/01/15 06:22:50;;;;;;;13.07;6.75;;;;;;;;;;6245426;28;20290;-69
2022/01/15 06:25:56;;;;;;;15.80;7.20;;;;;;;;;;6244551;28;20123;-69
2022/01/15 06:28:59;;;;;;;18.60;7.35;;;;;;;;;;6244892;28;20298;-69
2022/01/15 06:32:02;;;;;;;14.25;7.32;;;;;;;;;;6245012;28;20045;-69
2022/01/15 06:35:06;;;;;;;13.20;7.07;;;;;;;;;;6245537;28;20037;-69
2022/01/15 06:38:09;;;;;;;18.73;8.30;;;;;;;;;;6244809;28;20423;-68
2022/01/15 06:41:14;;;;;;;14.50;7.95;;;;;;;;;;6246195;28;20125;-68
2022/01/15 06:44:17;;;;;;;13.45;7.53;;;;;;;;;;6246328;28;20068;-68
2022/01/15 06:47:20;;;;;;;18.80;7.55;;;;;;;;;;6244156;28;20037;-68
2022/01/15 06:50:25;;;;;;;17.63;7.30;;;;;;;;;;6244317;28;20057;-67
2022/01/15 06:53:29;;;;;;;12.70;7.93;;;;;;;;;;6246270;28;20057;-68
2022/01/15 06:56:34;;;;;;;;;;;;;;;;;;6245470;28;20060;-68
2022/01/15 06:59:38;;;;;;;14.90;7.00;;;;;;;;;;6245760;28;19935;-69
2022/01/15 07:02:41;;;;;;;14.75;6.82;;;;;;;;;;6245017;28;20173;-68
2022/01/15 07:05:44;;;;;;;14.25;6.82;;;;;;;;;;6245150;28;20091;-68
2022/01/15 07:08:47;;;;;;;16.52;6.72;;;;;;;;;;6245585;28;20045;-68
2022/01/15 07:11:50;;;;;;;14.02;7.05;;;;;;;;;;6245116;28;20045;-69
2022/01/15 07:14:54;;;;;;;11.02;6.32;;;;;;;;;;6244217;28;20058;-68
2022/01/15 07:17:59;;;;;;;15.00;7.60;;;;;;;;;;6244580;28;20045;-68
2022/01/15 07:21:02;;;;;;;15.02;5.93;;;;;;;;;;6245314;28;20049;-70
2022/01/15 07:24:05;;;;;;;13.45;6.80;;;;;;;;;;6245068;28;20411;-68
2022/01/15 07:27:08;;;;;;;12.15;6.18;;;;;;;;;;6244996;28;20052;-69
2022/01/15 07:30:14;;;;;;;11.30;5.78;;;;;;;;;;6244876;28;20734;-68
2022/01/15 07:33:17;;;;;;;13.25;6.28;;;;;;;;;;6244633;28;20130;-69
2022/01/15 07:36:20;;;;;;;12.23;5.20;;;;;;;;;;6244709;28;20381;-69
2022/01/15 07:39:25;;;;;;;14.70;5.97;;;;;;;;;;6242809;28;20075;-68
2022/01/15 07:42:35;;;;;;;20.23;6.78;;;;;;;;;;6244247;28;20060;-68
2022/01/15 07:45:39;;;;;;;12.68;6.47;;;;;;;;;;6243698;28;20053;-68
2022/01/15 07:48:42;;;;;;;13.13;5.97;;;;;;;;;;6242405;28;20033;-68
2022/01/15 07:51:45;;;;;;;17.13;6.15;;;;;;;;;;6244258;28;20045;-68
2022/01/15 07:54:48;;;;;;;15.02;5.80;;;;;;;;;;6226377;28;20049;-68
2022/01/15 07:57:54;;;;;;;14.07;6.43;;;;;;;;;;6244444;28;20131;-68
2022/01/15 08:00:59;;;;;;;11.48;5.10;;;;;;;;;;6243616;28;20060;-69
2022/01/15 08:04:05;;;;;;;11.00;5.43;;;;;;;;;;6243750;28;20508;-69
2022/01/15 08:07:10;;;;;;;17.08;5.93;;;;;;;;;;6242891;28;20046;-69
2022/01/15 08:10:13;;;;;;;11.02;5.57;;;;;;;;;;6243097;28;20042;-68
2022/01/15 08:13:16;;;;;;;12.70;6.15;;;;;;;;;;6244031;28;20053;-68
2022/01/15 08:16:21;;;;;;;13.82;6.75;;;;;;;;;;6242935;28;20460;-69
2022/01/15 08:19:24;;;;;;;11.82;5.88;;;;;;;;;;6225766;28;20049;-69
2022/01/15 08:22:26;;;;;;;16.25;5.47;;;;;;;;;;6243237;28;20507;-69
2022/01/15 08:25:30;;;;;;;15.27;6.65;;;;;;;;;;6243201;28;20049;-69
2022/01/15 08:28:37;;;;;;;9.75;5.28;;;;;;;;;;6242551;28;20056;-70
2022/01/15 08:31:42;;;;;;;11.57;5.28;;;;;;;;;;6243035;28;20059;-69
2022/01/15 08:34:45;;;;;;;14.77;5.47;;;;;;;;;;6243362;28;20045;-69
2022/01/15 08:37:49;;;;;;;12.32;5.30;;;;;;;;;;6241923;28;20484;-69
2022/01/15 08:40:52;;;;;;;10.95;4.70;;;;;;;;;;6241860;28;20060;-67
2022/01/15 08:43:55;;;;;;;11.02;4.70;;;;;;;;;;6242125;28;20056;-68
2022/01/15 08:47:01;;;;;;;12.80;5.10;;;;;;;;;;6241772;28;20108;-67
2022/01/15 08:50:05;;;;;;;15.80;5.20;;;;;;;;;;6242399;28;20540;-69
2022/01/15 08:53:08;;;;;;;11.70;4.90;;;;;;;;;;6241400;28;20500;-66
2022/01/15 08:56:11;;;;;;;13.48;5.00;;;;;;;;;;6240458;28;20049;-66
2022/01/15 08:59:14;;;;;;;46.97;21.02;;;;;;;;;;6240622;28;20051;-68
2022/01/15 09:02:18;;;;;;;12.55;5.05;;;;;;;;;;6241392;28;20382;-68
2022/01/15 09:05:22;;;;;;;10.88;4.63;;;;;;;;;;6241829;28;20045;-68
2022/01/15 09:08:26;;;;;;;12.88;4.90;;;;;;;;;;6240294;28;20041;-68
2022/01/15 09:11:29;;;;;;;13.00;4.85;;;;;;;;;;6241757;28;20061;-68
2022/01/15 09:14:32;;;;;;;9.98;4.85;;;;;;;;;;6241023;28;20049;-67
2022/01/15 09:17:36;;;;;;;13.48;5.30;;;;;;;;;;6241883;28;20046;-67
2022/01/15 09:20:39;;;;;;;14.70;5.13;;;;;;;;;;6241065;28;20041;-67
2022/01/15 09:23:42;;;;;;;12.95;5.13;;;;;;;;;;6239419;28;20041;-68
2022/01/15 09:26:49;;;;;;;11.43;5.30;;;;;;;;;;6239763;28;20366;-67
2022/01/15 09:33:15;;;;;;;12.80;4.75;;;;;;;;;;6240640;28;20450;-67
2022/01/15 09:36:18;;;;;;;12.25;4.80;;;;;;;;;;6238823;28;20054;-67
2022/01/15 09:39:22;;;;;;;13.00;4.13;;;;;;;;;;6236856;28;20052;-67
2022/01/15 09:42:25;;;;;;;11.60;4.05;;;;;;;;;;6200653;28;1088741;-68
2022/01/15 09:45:29;;;;;;;11.73;4.47;;;;;;;;;;6239047;28;20041;-67
2022/01/15 09:48:34;;;;;;;11.30;4.20;;;;;;;;;;6240088;28;20049;-67
2022/01/15 09:51:37;;;;;;;11.88;4.30;;;;;;;;;;6240177;28;20042;-67
2022/01/15 09:54:40;;;;;;;15.18;5.70;;;;;;;;;;6241824;28;20264;-67
2022/01/15 09:57:43;;;;;;;14.38;4.43;;;;;;;;;;6240321;28;20049;-66
2022/01/15 10:00:47;;;;;;;9.60;5.20;;;;;;;;;;6241729;28;20049;-67
2022/01/15 10:03:54;;;;;;;14.43;4.75;;;;;;;;;;6224400;28;20111;-66
2022/01/15 10:07:07;;;;;;;12.93;4.25;;;;;;;;;;6241262;28;20041;-67
2022/01/15 10:10:15;;;;;;;14.63;5.18;;;;;;;;;;6242011;28;20423;-66
2022/01/15 10:13:21;;;;;;;10.63;4.13;;;;;;;;;;6241736;28;20052;-67
2022/01/15 10:16:24;;;;;;;14.32;4.05;;;;;;;;;;6240314;28;20139;-68
2022/01/15 10:19:33;;;;;;;11.60;4.50;;;;;;;;;;6240033;28;20055;-66
2022/01/15 10:22:39;;;;;;;12.70;4.32;;;;;;;;;;6241558;28;20286;-68
2022/01/15 10:25:42;;;;;;;12.50;4.65;;;;;;;;;;6242004;28;20041;-68
2022/01/15 10:28:49;;;;;;;14.25;3.53;;;;;;;;;;6241279;28;20056;-67
2022/01/15 10:31:51;;;;;;;8.93;3.83;;;;;;;;;;6241842;28;20041;-67
2022/01/15 10:34:57;;;;;;;12.10;4.32;;;;;;;;;;6241045;28;20056;-66
2022/01/15 10:38:01;;;;;;;12.83;4.63;;;;;;;;;;6243597;28;20184;-67
2022/01/15 10:41:06;;;;;;;6.05;2.63;;;;;;;;;;6245617;28;20057;-66
2022/01/15 10:44:24;;;;;;;9.52;3.80;;;;;;;;;;6245410;28;20133;-66
2022/01/15 10:47:28;;;;;;;12.65;4.07;;;;;;;;;;6245614;28;20049;-67
2022/01/15 10:50:33;;;;;;;11.60;4.18;;;;;;;;;;6244947;28;20045;-67
2022/01/15 10:53:37;;;;;;;13.45;4.30;;;;;;;;;;6245585;28;20049;-67
2022/01/15 10:56:40;;;;;;;10.40;3.92;;;;;;;;;;6245077;28;20484;-67
2022/01/15 10:59:54;;;;;;;10.13;3.17;;;;;;;;;;6245358;28;20050;-67
2022/01/15 11:02:58;;;;;;;11.93;3.75;;;;;;;;;;6244620;28;20050;-66
2022/01/15 11:06:03;;;;;;;8.98;3.42;;;;;;;;;;6245183;28;20088;-68
2022/01/15 11:09:06;;;;;;;8.85;2.97;;;;;;;;;;6244241;28;20045;-67
2022/01/15 11:12:09;;;;;;;9.73;3.78;;;;;;;;;;6244777;28;20057;-68
2022/01/15 11:15:12;;;;;;;9.73;3.50;;;;;;;;;;6227284;28;20076;-67
2022/01/15 11:18:18;;;;;;;8.75;2.92;;;;;;;;;;6243575;28;20053;-67
2022/01/15 11:21:24;;;;;;;18.45;3.78;;;;;;;;;;6245019;28;20107;-67
2022/01/15 11:24:29;;;;;;;11.57;3.92;;;;;;;;;;6242902;28;20045;-67
2022/01/15 11:27:33;;;;;;;8.30;3.15;;;;;;;;;;6244679;28;20121;-67
2022/01/15 11:30:36;;;;;;;10.18;2.97;;;;;;;;;;6243421;28;20041;-67
2022/01/15 11:33:40;;;;;;;11.52;3.53;;;;;;;;;;6243951;28;20447;-67
2022/01/15 11:36:45;;;;;;;7.22;2.85;;;;;;;;;;6244684;28;20042;-67
2022/01/15 11:39:52;;;;;;;12.35;2.95;;;;;;;;;;6244687;28;20050;-67
2022/01/15 11:42:55;;;;;;;10.88;3.05;;;;;;;;;;6242822;28;20057;-68
2022/01/15 11:45:58;;;;;;;7.55;2.55;;;;;;;;;;6242565;28;20506;-68
2022/01/15 11:49:20;;;;;;;8.98;2.78;;;;;;;;;;6243658;28;20107;-67
2022/01/15 11:52:36;;;;;;;6.85;2.47;;;;;;;;;;6226430;28;20046;-69
2022/01/15 11:55:43;;;;;;;9.80;2.53;;;;;;;;;;6242473;28;20049;-70
2022/01/15 11:58:46;;;;;;;9.10;2.60;;;;;;;;;;6243781;28;20056;-70
2022/01/15 12:01:52;;;;;;;9.45;2.20;;;;;;;;;;6242594;28;20049;-70
2022/01/15 12:04:55;;;;;;;8.52;3.55;;;;;;;;;;6243971;28;20477;-68
2022/01/15 12:08:19;;;;;;;14.18;2.75;;;;;;;;;;6241660;28;20045;-68
2022/01/15 12:11:33;;;;;;;9.27;2.45;;;;;;;;;;6243875;28;20128;-67
2022/01/15 12:14:49;;;;;;;11.25;2.78;;;;;;;;;;6243322;28;20072;-68
2022/01/15 12:17:53;;;;;;;10.95;2.60;;;;;;;;;;6243627;28;20128;-68
2022/01/15 12:20:57;;;;;;;14.75;2.67;;;;;;;;;;6242627;28;20060;-68
2022/01/15 12:24:15;;;;;;;11.25;2.60;;;;;;;;;;6243909;28;20049;-68
2022/01/15 12:27:20;;;;;;;13.02;3.05;;;;;;;;;;6224998;28;20061;-68
2022/01/15 12:30:24;;;;;;;9.30;3.60;;;;;;;;;;6241865;28;20053;-68
2022/01/15 12:33:27;;;;;;;8.02;2.75;;;;;;;;;;6241465;28;20053;-67
2022/01/15 12:36:46;;;;;;;8.30;2.90;;;;;;;;;;6242936;28;20042;-67
2022/01/15 12:39:49;;;;;;;10.73;3.20;;;;;;;;;;6243249;28;20060;-67
2022/01/15 12:42:57;;;;;;;8.50;3.20;;;;;;;;;;6242089;28;20385;-67
2022/01/15 12:46:01;;;;;;;10.18;3.30;;;;;;;;;;6242181;28;20053;-66
2022/01/15 12:49:08;;;;;;;7.28;2.78;;;;;;;;;;6241391;28;20084;-68
2022/01/15 12:52:13;;;;;;;7.80;2.83;;;;;;;;;;6241476;28;20045;-67
2022/01/15 12:55:15;;;;;;;16.52;3.33;;;;;;;;;;6240907;28;20119;-70
2022/01/15 12:58:21;;;;;;;8.38;3.17;;;;;;;;;;6242637;28;20045;-68
2022/01/15 13:01:24;;;;;;;12.73;3.72;;;;;;;;;;6241272;28;20053;-66
2022/01/15 13:04:28;;;;;;;12.85;3.25;;;;;;;;;;6241692;28;20041;-65
2022/01/15 13:07:45;;;;;;;10.07;3.30;;;;;;;;;;6241424;28;20185;-66
2022/01/15 13:10:51;;;;;;;8.07;2.88;;;;;;;;;;6242406;28;20045;-69
2022/01/15 13:13:56;;;;;;;10.32;3.10;;;;;;;;;;6242492;28;20073;-63
2022/01/15 13:16:59;;;;;;;6.60;2.88;;;;;;;;;;6241777;28;20331;-64
2022/01/15 13:20:03;;;;;;;11.73;3.75;;;;;;;;;;6242211;28;20051;-66
2022/01/15 13:23:06;;;;;;;8.82;3.03;;;;;;;;;;6241029;28;20046;-65
2022/01/15 13:26:10;;;;;;;12.18;3.53;;;;;;;;;;6241290;28;20057;-63
2022/01/15 13:29:15;;;;;;;10.75;3.30;;;;;;;;;;6242145;28;20049;-64
2022/01/15 13:32:21;;;;;;;8.80;3.70;;;;;;;;;;6241891;28;20119;-64
2022/01/15 13:35:24;;;;;;;8.60;3.63;;;;;;;;;;6241677;28;20050;-65
2022/01/15 13:38:32;;;;;;;8.20;3.20;;;;;;;;;;6241185;28;20107;-65
2022/01/15 13:41:36;;;;;;;9.15;3.50;;;;;;;;;;6242196;28;20063;-64
2022/01/15 13:44:40;;;;;;;9.25;3.35;;;;;;;;;;6241818;28;20060;-64
2022/01/15 13:47:44;;;;;;;9.40;3.28;;;;;;;;;;6239984;28;20061;-63
2022/01/15 13:54:25;;;;;;;7.30;3.13;;;;;;;;;;6166216;28;20383;-69
2022/01/15 13:57:28;;;;;;;11.43;3.55;;;;;;;;;;6242373;28;20044;-68
2022/01/15 14:00:33;;;;;;;9.45;3.10;;;;;;;;;;6240885;28;20099;-68
2022/01/15 14:03:36;;;;;;;9.93;3.88;;;;;;;;;;6241441;28;20682;-67
2022/01/15 14:06:40;;;;;;;10.13;3.50;;;;;;;;;;6241388;28;20076;-67
2022/01/15 14:09:43;;;;;;;9.55;3.10;;;;;;;;;;6239785;28;20077;-69
2022/01/15 14:12:47;;;;;;;15.93;3.78;;;;;;;;;;6242123;28;20046;-67
2022/01/15 14:15:52;;;;;;;13.15;3.50;;;;;;;;;;6245920;28;20048;-67
2022/01/15 14:22:18;;;;;;;10.85;3.28;;;;;;;;;;6243224;28;20041;-66
2022/01/15 14:25:22;;;;;;;11.90;3.47;;;;;;;;;;6246534;28;20045;-67
2022/01/15 14:28:27;;;;;;;11.38;3.20;;;;;;;;;;6244615;28;20415;-67
2022/01/15 14:31:34;;;;;;;8.32;3.78;;;;;;;;;;6245523;28;20439;-67
2022/01/15 14:34:37;;;;;;;8.50;3.08;;;;;;;;;;6243874;28;20060;-68
2022/01/15 14:37:40;;;;;;;10.88;3.42;;;;;;;;;;6245211;28;20263;-68
2022/01/15 14:40:43;;;;;;;20.65;8.60;;;;;;;;;;6244457;28;20128;-68
2022/01/15 14:44:06;;;;;;;12.15;4.50;;;;;;;;;;6244584;28;20053;-68
2022/01/15 14:47:10;;;;;;;9.70;3.20;;;;;;;;;;6246154;28;20076;-67
2022/01/15 14:50:14;;;;;;;9.80;2.80;;;;;;;;;;6245403;28;20051;-66
2022/01/15 14:53:20;;;;;;;10.52;4.32;;;;;;;;;;6245394;28;20095;-65
2022/01/15 14:56:26;;;;;;;6.72;2.88;;;;;;;;;;6244890;28;20396;-67
2022/01/15 14:59:28;;;;;;;11.13;3.55;;;;;;;;;;6244227;28;20418;-68
2022/01/15 15:02:33;;;;;;;10.48;3.03;;;;;;;;;;6245363;28;20054;-67
2022/01/15 15:05:36;;;;;;;8.80;2.88;;;;;;;;;;6242998;28;20571;-68
2022/01/15 15:08:39;;;;;;;10.13;3.47;;;;;;;;;;6245088;28;20060;-68
2022/01/15 15:11:42;;;;;;;10.57;3.13;;;;;;;;;;6244911;28;20132;-68
2022/01/15 15:14:45;;;;;;;7.20;3.28;;;;;;;;;;6243279;28;20052;-68
2022/01/15 15:17:50;;;;;;;12.25;2.95;;;;;;;;;;6244448;28;20038;-68
2022/01/15 15:20:54;;;;;;;7.22;3.70;;;;;;;;;;6244643;28;20100;-67
2022/01/15 15:23:57;;;;;;;8.68;3.33;;;;;;;;;;6244995;28;20476;-68
2022/01/15 15:27:00;;;;;;;9.77;3.67;;;;;;;;;;6243847;28;20484;-68
2022/01/15 15:30:03;;;;;;;9.50;3.20;;;;;;;;;;6244591;28;20417;-68
2022/01/15 15:33:08;;;;;;;11.23;3.53;;;;;;;;;;6226728;28;20099;-68
2022/01/15 15:36:11;;;;;;;7.63;2.60;;;;;;;;;;6243801;28;20515;-68
2022/01/15 15:39:14;;;;;;;9.75;3.42;;;;;;;;;;6226226;28;20089;-67
2022/01/15 15:42:17;;;;;;;10.15;3.15;;;;;;;;;;6244095;28;20542;-67
2022/01/15 15:45:20;;;;;;;8.93;2.75;;;;;;;;;;6243990;28;20065;-68
2022/01/15 15:48:24;;;;;;;12.30;3.60;;;;;;;;;;6243481;28;20041;-68
2022/01/15 15:51:27;;;;;;;8.82;3.05;;;;;;;;;;6243977;28;20412;-69
2022/01/15 15:54:30;;;;;;;8.93;3.65;;;;;;;;;;6244109;28;20047;-68
2022/01/15 15:57:38;;;;;;;11.20;3.60;;;;;;;;;;6241885;28;20045;-68
2022/01/15 16:00:43;;;;;;;21.27;5.75;;;;;;;;;;6243757;28;20456;-68
2022/01/15 16:03:49;;;;;;;11.50;4.78;;;;;;;;;;6243506;28;20052;-70
2022/01/15 16:06:54;;;;;;;14.73;4.18;;;;;;;;;;6243428;28;20346;-69
2022/01/15 16:10:01;;;;;;;13.95;4.80;;;;;;;;;;6243122;28;20045;-70
2022/01/15 16:13:06;;;;;;;13.18;3.70;;;;;;;;;;6243446;28;20060;-70
2022/01/15 16:16:09;;;;;;;11.38;4.60;;;;;;;;;;6243636;28;20053;-67
2022/01/15 16:19:13;;;;;;;9.48;3.50;;;;;;;;;;6241220;28;20128;-70
2022/01/15 16:22:16;;;;;;;14.38;3.55;;;;;;;;;;6241979;28;20057;-70
2022/01/15 16:25:19;;;;;;;16.42;3.90;;;;;;;;;;6243074;28;20057;-69
2022/01/15 16:28:22;;;;;;;16.90;5.18;;;;;;;;;;6241490;28;20048;-69
2022/01/15 16:31:34;;;;;;;10.90;3.70;;;;;;;;;;6241540;28;20061;-68
2022/01/15 16:34:38;;;;;;;12.38;4.35;;;;;;;;;;6241543;28;20385;-68
2022/01/15 16:37:41;;;;;;;11.63;4.75;;;;;;;;;;6242483;28;20563;-69
2022/01/15 16:40:44;;;;;;;16.00;4.93;;;;;;;;;;6242019;28;20041;-69
2022/01/15 16:43:47;;;;;;;15.68;3.97;;;;;;;;;;6242606;28;20519;-69
2022/01/15 16:46:53;;;;;;;14.93;4.47;;;;;;;;;;6242804;28;20122;-69
2022/01/15 16:49:59;;;;;;;11.48;3.72;;;;;;;;;;6241000;28;20045;-69
2022/01/15 16:53:02;;;;;;;10.93;3.88;;;;;;;;;;6240517;28;20542;-70
2022/01/15 16:56:05;;;;;;;14.00;2.97;;;;;;;;;;6240344;28;20049;-70
2022/01/15 16:59:08;;;;;;;13.43;4.55;;;;;;;;;;6242556;28;20052;-69
2022/01/15 17:02:11;;;;;;;12.75;4.70;;;;;;;;;;6242148;28;20046;-68
2022/01/15 17:05:16;;;;;;;10.02;4.30;;;;;;;;;;6242566;28;20057;-68
2022/01/15 17:08:19;;;;;;;12.70;4.38;;;;;;;;;;6242694;28;20125;-69
2022/01/15 17:11:22;;;;;;;16.35;4.35;;;;;;;;;;6241971;28;20052;-68
2022/01/15 17:14:29;;;;;;;15.00;5.07;;;;;;;;;;6241075;28;20164;-68
2022/01/15 17:17:35;;;;;;;12.13;4.32;;;;;;;;;;6242086;28;20083;-69
2022/01/15 17:20:42;;;;;;;10.20;4.53;;;;;;;;;;6242423;28;20381;-68
2022/01/15 17:23:45;;;;;;;16.10;4.63;;;;;;;;;;6240381;28;20385;-69
2022/01/15 17:26:48;;;;;;;12.82;3.92;;;;;;;;;;6242165;28;20049;-68
2022/01/15 17:29:51;;;;;;;13.68;5.25;;;;;;;;;;6242153;28;20052;-69
2022/01/15 17:32:54;;;;;;;16.15;4.10;;;;;;;;;;6241751;28;20046;-68
2022/01/15 17:35:59;;;;;;;10.45;4.32;;;;;;;;;;6242145;28;20064;-69
2022/01/15 17:39:04;;;;;;;31.00;11.07;;;;;;;;;;6240520;28;20399;-69
2022/01/15 17:42:10;;;;;;;13.77;5.10;;;;;;;;;;6224377;28;20121;-69
2022/01/15 17:45:13;;;;;;;14.13;5.05;;;;;;;;;;6240130;28;20136;-67
2022/01/15 17:48:16;;;;;;;19.40;8.38;;;;;;;;;;6243236;28;20088;-67
2022/01/15 17:51:23;;;;;;;18.77;5.95;;;;;;;;;;6247521;28;20523;-67
2022/01/15 17:54:28;;;;;;;25.92;6.07;;;;;;;;;;6244995;28;20064;-68
2022/01/15 17:57:30;;;;;;;13.55;5.32;;;;;;;;;;6246956;28;20049;-68
2022/01/15 18:00:33;;;;;;;14.05;5.55;;;;;;;;;;6245375;28;20045;-67
2022/01/15 18:03:38;;;;;;;18.55;5.75;;;;;;;;;;6245140;28;20038;-67
2022/01/15 18:06:44;;;;;;;14.88;6.22;;;;;;;;;;6244110;28;20046;-68
2022/01/15 18:09:50;;;;;;;11.95;4.70;;;;;;;;;;6242482;28;20073;-68
2022/01/15 18:12:55;;;;;;;15.48;5.82;;;;;;;;;;6244051;28;20056;-68
2022/01/15 18:16:01;;;;;;;20.75;6.90;;;;;;;;;;6242739;28;20037;-68
2022/01/15 18:19:04;;;;;;;17.55;6.82;;;;;;;;;;6244480;28;20428;-68
2022/01/15 18:22:08;;;;;;;13.35;4.93;;;;;;;;;;6244872;28;20539;-68
2022/01/15 18:25:12;;;;;;;19.00;5.90;;;;;;;;;;6246067;28;20349;-68
2022/01/15 18:28:14;;;;;;;16.77;5.90;;;;;;;;;;6246064;28;20041;-68
2022/01/15 18:31:20;;;;;;;8.40;4.50;;;;;;;;;;6244779;28;20056;-67